sensor_id;sensor_type;location;lat;lon;timestamp;P1;durP1;ratioP1;P2;durP2;ratioP2
8927;SDS011;4499;48.304;11.902;2023-05-17T00:00:40;5.77;;;2.70;;
8927;SDS011;4499;48.304;11.902;2023-05-17T00:03:08;8.47;;;3.10;;
8927;SDS011;4499;48.304;11.902;2023-05-17T00:05:37;6.70;;;2.70;;
8927;SDS011;4499;48.304;11.902;2023-05-17T00:08:05;5.60;;;2.47;;
8927;SDS011;4499;48.304;11.902;2023-05-17T00:10:33;6.30;;;2.37;;
8927;SDS011;4499;48.304;11.902;2023-05-17T00:13:01;6.00;;;2.40;;
8927;SDS011;4499;48.304;11.902;2023-05-17T00:15:30;8.90;;;2.97;;
8927;SDS011;4499;48.304;11.902;2023-05-17T00:17:58;9.13;;;2.90;;
8927;SDS011;4499;48.304;11.902;2023-05-17T00:20:27;8.33;;;2.90;;
8927;SDS011;4499;48.304;11.902;2023-05-17T00:22:55;7.87;;;2.87;;
8927;SDS011;4499;48.304;11.902;2023-05-17T00:25:23;8.60;;;2.90;;
8927;SDS011;4499;48.304;11.902;2023-05-17T00:27:52;6.43;;;2.77;;
8927;SDS011;4499;48.304;11.902;2023-05-17T00:30:20;9.23;;;2.90;;
8927;SDS011;4499;48.304;11.902;2023-05-17T00:32:49;6.07;;;2.63;;
8927;SDS011;4499;48.304;11.902;2023-05-17T00:35:17;8.70;;;2.60;;
8927;SDS011;4499;48.304;11.902;2023-05-17T00:37:46;10.40;;;2.70;;
8927;SDS011;4499;48.304;11.902;2023-05-17T00:40:14;6.57;;;2.70;;
8927;SDS011;4499;48.304;11.902;2023-05-17T00:42:43;7.50;;;2.90;;
8927;SDS011;4499;48.304;11.902;2023-05-17T00:45:11;6.23;;;2.90;;
8927;SDS011;4499;48.304;11.902;2023-05-17T00:47:39;5.60;;;2.93;;
8927;SDS011;4499;48.304;11.902;2023-05-17T00:50:09;5.23;;;2.37;;
8927;SDS011;4499;48.304;11.902;2023-05-17T00:52:38;5.73;;;2.70;;
8927;SDS011;4499;48.304;11.902;2023-05-17T00:55:06;5.13;;;2.80;;
8927;SDS011;4499;48.304;11.902;2023-05-17T00:57:34;8.80;;;2.87;;
8927;SDS011;4499;48.304;11.902;2023-05-17T01:00:03;5.27;;;2.80;;
8927;SDS011;4499;48.304;11.902;2023-05-17T01:02:32;9.40;;;3.17;;
8927;SDS011;4499;48.304;11.902;2023-05-17T01:05:03;9.20;;;2.80;;
8927;SDS011;4499;48.304;11.902;2023-05-17T01:07:34;9.33;;;2.90;;
8927;SDS011;4499;48.304;11.902;2023-05-17T01:10:02;7.80;;;2.60;;
8927;SDS011;4499;48.304;11.902;2023-05-17T01:12:31;6.53;;;2.20;;
8927;SDS011;4499;48.304;11.902;2023-05-17T01:15:12;7.50;;;2.73;;
8927;SDS011;4499;48.304;11.902;2023-05-17T01:17:46;9.57;;;3.00;;
8927;SDS011;4499;48.304;11.902;2023-05-17T01:20:25;6.77;;;2.77;;
8927;SDS011;4499;48.304;11.902;2023-05-17T01:23:02;6.90;;;2.50;;
8927;SDS011;4499;48.304;11.902;2023-05-17T01:25:49;6.97;;;2.70;;
8927;SDS011;4499;48.304;11.902;2023-05-17T01:28:22;7.73;;;2.80;;
8927;SDS011;4499;48.304;11.902;2023-05-17T01:30:53;7.50;;;2.40;;
8927;SDS011;4499;48.304;11.902;2023-05-17T01:33:22;7.07;;;2.70;;
8927;SDS011;4499;48.304;11.902;2023-05-17T01:35:50;7.03;;;2.70;;
8927;SDS011;4499;48.304;11.902;2023-05-17T01:38:18;6.00;;;2.40;;
8927;SDS011;4499;48.304;11.902;2023-05-17T01:40:47;6.43;;;2.60;;
8927;SDS011;4499;48.304;11.902;2023-05-17T01:43:20;10.07;;;2.67;;
8927;SDS011;4499;48.304;11.902;2023-05-17T01:45:55;6.30;;;2.70;;
8927;SDS011;4499;48.304;11.902;2023-05-17T01:48:33;6.73;;;2.73;;
8927;SDS011;4499;48.304;11.902;2023-05-17T01:51:06;7.33;;;2.43;;
8927;SDS011;4499;48.304;11.902;2023-05-17T01:53:38;8.40;;;2.90;;
8927;SDS011;4499;48.304;11.902;2023-05-17T01:56:13;7.33;;;2.70;;
8927;SDS011;4499;48.304;11.902;2023-05-17T01:58:47;6.13;;;2.63;;
8927;SDS011;4499;48.304;11.902;2023-05-17T02:01:17;7.77;;;2.60;;
8927;SDS011;4499;48.304;11.902;2023-05-17T02:03:47;8.80;;;2.93;;
8927;SDS011;4499;48.304;11.902;2023-05-17T02:06:16;7.03;;;2.60;;
8927;SDS011;4499;48.304;11.902;2023-05-17T02:08:44;9.53;;;3.37;;
8927;SDS011;4499;48.304;11.902;2023-05-17T02:11:12;8.73;;;2.67;;
8927;SDS011;4499;48.304;11.902;2023-05-17T02:13:40;9.87;;;2.60;;
8927;SDS011;4499;48.304;11.902;2023-05-17T02:16:10;9.67;;;3.03;;
8927;SDS011;4499;48.304;11.902;2023-05-17T02:18:38;6.90;;;2.50;;
8927;SDS011;4499;48.304;11.902;2023-05-17T02:21:06;7.40;;;2.50;;
8927;SDS011;4499;48.304;11.902;2023-05-17T02:23:34;5.13;;;2.67;;
8927;SDS011;4499;48.304;11.902;2023-05-17T02:26:03;5.73;;;2.70;;
8927;SDS011;4499;48.304;11.902;2023-05-17T02:28:31;7.40;;;3.10;;
8927;SDS011;4499;48.304;11.902;2023-05-17T02:30:59;5.73;;;2.57;;
8927;SDS011;4499;48.304;11.902;2023-05-17T02:33:28;7.17;;;2.63;;
8927;SDS011;4499;48.304;11.902;2023-05-17T02:35:57;6.93;;;2.67;;
8927;SDS011;4499;48.304;11.902;2023-05-17T02:38:25;7.37;;;2.23;;
8927;SDS011;4499;48.304;11.902;2023-05-17T02:40:53;9.77;;;2.87;;
8927;SDS011;4499;48.304;11.902;2023-05-17T02:43:21;7.53;;;2.60;;
8927;SDS011;4499;48.304;11.902;2023-05-17T02:45:49;7.73;;;2.83;;
8927;SDS011;4499;48.304;11.902;2023-05-17T02:48:17;8.43;;;2.57;;
8927;SDS011;4499;48.304;11.902;2023-05-17T02:50:46;5.13;;;2.20;;
8927;SDS011;4499;48.304;11.902;2023-05-17T02:53:14;6.93;;;2.70;;
8927;SDS011;4499;48.304;11.902;2023-05-17T02:55:42;8.53;;;2.50;;
8927;SDS011;4499;48.304;11.902;2023-05-17T02:58:10;6.63;;;2.40;;
8927;SDS011;4499;48.304;11.902;2023-05-17T03:00:39;5.47;;;2.30;;
8927;SDS011;4499;48.304;11.902;2023-05-17T03:03:10;7.57;;;2.50;;
8927;SDS011;4499;48.304;11.902;2023-05-17T03:05:38;6.50;;;3.00;;
8927;SDS011;4499;48.304;11.902;2023-05-17T03:08:08;9.97;;;2.70;;
8927;SDS011;4499;48.304;11.902;2023-05-17T03:10:36;7.37;;;2.50;;
8927;SDS011;4499;48.304;11.902;2023-05-17T03:13:04;8.17;;;2.60;;
8927;SDS011;4499;48.304;11.902;2023-05-17T03:15:32;6.80;;;2.40;;
8927;SDS011;4499;48.304;11.902;2023-05-17T03:18:00;7.50;;;2.27;;
8927;SDS011;4499;48.304;11.902;2023-05-17T03:20:28;5.10;;;2.40;;
8927;SDS011;4499;48.304;11.902;2023-05-17T03:22:56;7.13;;;2.13;;
8927;SDS011;4499;48.304;11.902;2023-05-17T03:25:26;5.23;;;2.27;;
8927;SDS011;4499;48.304;11.902;2023-05-17T03:27:54;6.50;;;2.37;;
8927;SDS011;4499;48.304;11.902;2023-05-17T03:30:22;6.50;;;2.20;;
8927;SDS011;4499;48.304;11.902;2023-05-17T03:32:51;7.43;;;2.10;;
8927;SDS011;4499;48.304;11.902;2023-05-17T03:35:19;8.27;;;2.30;;
8927;SDS011;4499;48.304;11.902;2023-05-17T03:37:47;6.80;;;2.20;;
8927;SDS011;4499;48.304;11.902;2023-05-17T03:40:16;5.33;;;2.00;;
8927;SDS011;4499;48.304;11.902;2023-05-17T03:42:45;4.93;;;2.07;;
8927;SDS011;4499;48.304;11.902;2023-05-17T03:45:13;5.33;;;2.30;;
8927;SDS011;4499;48.304;11.902;2023-05-17T03:47:41;7.83;;;2.40;;
8927;SDS011;4499;48.304;11.902;2023-05-17T03:50:10;7.03;;;2.40;;
8927;SDS011;4499;48.304;11.902;2023-05-17T03:52:38;5.37;;;2.10;;
8927;SDS011;4499;48.304;11.902;2023-05-17T03:55:07;4.23;;;1.97;;
8927;SDS011;4499;48.304;11.902;2023-05-17T03:57:36;5.23;;;2.13;;
8927;SDS011;4499;48.304;11.902;2023-05-17T04:00:06;7.40;;;2.30;;
8927;SDS011;4499;48.304;11.902;2023-05-17T04:02:37;6.57;;;2.40;;
8927;SDS011;4499;48.304;11.902;2023-05-17T04:05:05;5.17;;;2.00;;
8927;SDS011;4499;48.304;11.902;2023-05-17T04:07:33;7.07;;;2.17;;
8927;SDS011;4499;48.304;11.902;2023-05-17T04:10:02;5.47;;;1.97;;
8927;SDS011;4499;48.304;11.902;2023-05-17T04:12:30;7.07;;;2.20;;
8927;SDS011;4499;48.304;11.902;2023-05-17T04:14:58;8.37;;;2.40;;
8927;SDS011;4499;48.304;11.902;2023-05-17T04:17:28;5.23;;;2.03;;
8927;SDS011;4499;48.304;11.902;2023-05-17T04:19:56;4.43;;;2.10;;
8927;SDS011;4499;48.304;11.902;2023-05-17T04:22:26;5.77;;;2.00;;
8927;SDS011;4499;48.304;11.902;2023-05-17T04:24:54;4.73;;;2.00;;
8927;SDS011;4499;48.304;11.902;2023-05-17T04:27:22;4.93;;;1.90;;
8927;SDS011;4499;48.304;11.902;2023-05-17T04:29:50;7.57;;;2.03;;
8927;SDS011;4499;48.304;11.902;2023-05-17T04:32:18;4.33;;;1.80;;
8927;SDS011;4499;48.304;11.902;2023-05-17T04:34:48;5.17;;;2.13;;
8927;SDS011;4499;48.304;11.902;2023-05-17T04:37:17;7.03;;;2.13;;
8927;SDS011;4499;48.304;11.902;2023-05-17T04:39:45;5.67;;;1.90;;
8927;SDS011;4499;48.304;11.902;2023-05-17T04:42:14;8.30;;;2.37;;
8927;SDS011;4499;48.304;11.902;2023-05-17T04:44:42;11.10;;;2.30;;
8927;SDS011;4499;48.304;11.902;2023-05-17T04:47:10;3.13;;;1.80;;
8927;SDS011;4499;48.304;11.902;2023-05-17T04:49:39;3.57;;;1.80;;
8927;SDS011;4499;48.304;11.902;2023-05-17T04:52:08;6.77;;;1.93;;
8927;SDS011;4499;48.304;11.902;2023-05-17T04:54:36;8.43;;;2.07;;
8927;SDS011;4499;48.304;11.902;2023-05-17T04:57:04;7.20;;;2.13;;
8927;SDS011;4499;48.304;11.902;2023-05-17T04:59:32;4.80;;;2.10;;
8927;SDS011;4499;48.304;11.902;2023-05-17T05:02:00;9.50;;;1.97;;
8927;SDS011;4499;48.304;11.902;2023-05-17T05:04:29;6.20;;;2.30;;
8927;SDS011;4499;48.304;11.902;2023-05-17T05:06:57;4.53;;;1.93;;
8927;SDS011;4499;48.304;11.902;2023-05-17T05:09:26;4.87;;;2.03;;
8927;SDS011;4499;48.304;11.902;2023-05-17T05:11:54;5.10;;;2.13;;
8927;SDS011;4499;48.304;11.902;2023-05-17T05:14:22;5.27;;;2.10;;
8927;SDS011;4499;48.304;11.902;2023-05-17T05:16:50;5.13;;;2.17;;
8927;SDS011;4499;48.304;11.902;2023-05-17T05:19:18;7.37;;;2.27;;
8927;SDS011;4499;48.304;11.902;2023-05-17T05:21:47;3.67;;;1.87;;
8927;SDS011;4499;48.304;11.902;2023-05-17T05:24:15;7.10;;;2.27;;
8927;SDS011;4499;48.304;11.902;2023-05-17T05:26:44;6.43;;;2.07;;
8927;SDS011;4499;48.304;11.902;2023-05-17T05:29:12;10.63;;;2.20;;
8927;SDS011;4499;48.304;11.902;2023-05-17T05:31:40;6.40;;;2.00;;
8927;SDS011;4499;48.304;11.902;2023-05-17T05:34:08;6.37;;;1.90;;
8927;SDS011;4499;48.304;11.902;2023-05-17T05:36:37;6.53;;;2.20;;
8927;SDS011;4499;48.304;11.902;2023-05-17T05:39:05;9.60;;;1.97;;
8927;SDS011;4499;48.304;11.902;2023-05-17T05:41:34;7.70;;;2.13;;
8927;SDS011;4499;48.304;11.902;2023-05-17T05:44:04;6.70;;;2.00;;
8927;SDS011;4499;48.304;11.902;2023-05-17T05:46:32;6.37;;;2.10;;
8927;SDS011;4499;48.304;11.902;2023-05-17T05:49:00;7.17;;;2.30;;
8927;SDS011;4499;48.304;11.902;2023-05-17T05:51:28;5.90;;;2.10;;
8927;SDS011;4499;48.304;11.902;2023-05-17T05:53:56;5.20;;;2.30;;
8927;SDS011;4499;48.304;11.902;2023-05-17T05:56:25;9.40;;;1.93;;
8927;SDS011;4499;48.304;11.902;2023-05-17T05:58:53;7.23;;;1.93;;
8927;SDS011;4499;48.304;11.902;2023-05-17T06:01:23;9.23;;;1.90;;
8927;SDS011;4499;48.304;11.902;2023-05-17T06:03:51;5.43;;;1.80;;
8927;SDS011;4499;48.304;11.902;2023-05-17T06:06:19;4.57;;;1.53;;
8927;SDS011;4499;48.304;11.902;2023-05-17T06:08:47;6.23;;;1.80;;
8927;SDS011;4499;48.304;11.902;2023-05-17T06:11:16;5.07;;;1.80;;
8927;SDS011;4499;48.304;11.902;2023-05-17T06:13:45;6.53;;;1.83;;
8927;SDS011;4499;48.304;11.902;2023-05-17T06:16:16;4.33;;;1.80;;
8927;SDS011;4499;48.304;11.902;2023-05-17T06:18:45;5.70;;;1.73;;
8927;SDS011;4499;48.304;11.902;2023-05-17T06:21:16;4.70;;;1.60;;
8927;SDS011;4499;48.304;11.902;2023-05-17T06:23:44;6.03;;;1.90;;
8927;SDS011;4499;48.304;11.902;2023-05-17T06:26:13;3.47;;;1.40;;
8927;SDS011;4499;48.304;11.902;2023-05-17T06:28:41;5.07;;;1.70;;
8927;SDS011;4499;48.304;11.902;2023-05-17T06:31:09;4.03;;;1.77;;
8927;SDS011;4499;48.304;11.902;2023-05-17T06:33:37;6.13;;;1.93;;
8927;SDS011;4499;48.304;11.902;2023-05-17T06:36:07;6.97;;;2.10;;
8927;SDS011;4499;48.304;11.902;2023-05-17T06:38:35;4.20;;;1.40;;
8927;SDS011;4499;48.304;11.902;2023-05-17T06:41:03;3.73;;;1.60;;
8927;SDS011;4499;48.304;11.902;2023-05-17T06:43:31;3.63;;;1.60;;
8927;SDS011;4499;48.304;11.902;2023-05-17T06:46:02;5.27;;;1.30;;
8927;SDS011;4499;48.304;11.902;2023-05-17T06:48:30;5.70;;;1.50;;
8927;SDS011;4499;48.304;11.902;2023-05-17T06:50:59;4.27;;;1.50;;
8927;SDS011;4499;48.304;11.902;2023-05-17T06:53:28;3.03;;;1.77;;
8927;SDS011;4499;48.304;11.902;2023-05-17T06:55:56;4.23;;;1.33;;
8927;SDS011;4499;48.304;11.902;2023-05-17T06:58:25;1.93;;;1.30;;
8927;SDS011;4499;48.304;11.902;2023-05-17T07:00:53;6.33;;;2.00;;
8927;SDS011;4499;48.304;11.902;2023-05-17T07:03:21;3.40;;;1.77;;
8927;SDS011;4499;48.304;11.902;2023-05-17T07:05:49;6.40;;;1.87;;
8927;SDS011;4499;48.304;11.902;2023-05-17T07:08:17;5.00;;;1.50;;
8927;SDS011;4499;48.304;11.902;2023-05-17T07:10:49;6.53;;;1.60;;
8927;SDS011;4499;48.304;11.902;2023-05-17T07:13:17;5.27;;;1.50;;
8927;SDS011;4499;48.304;11.902;2023-05-17T07:15:45;6.03;;;1.60;;
8927;SDS011;4499;48.304;11.902;2023-05-17T07:18:14;5.30;;;1.70;;
8927;SDS011;4499;48.304;11.902;2023-05-17T07:20:43;4.73;;;1.80;;
8927;SDS011;4499;48.304;11.902;2023-05-17T07:23:11;4.27;;;1.87;;
8927;SDS011;4499;48.304;11.902;2023-05-17T07:25:39;7.20;;;1.63;;
8927;SDS011;4499;48.304;11.902;2023-05-17T07:28:09;6.50;;;1.73;;
8927;SDS011;4499;48.304;11.902;2023-05-17T07:30:38;4.87;;;1.57;;
8927;SDS011;4499;48.304;11.902;2023-05-17T07:33:06;6.13;;;1.73;;
8927;SDS011;4499;48.304;11.902;2023-05-17T07:35:34;4.10;;;1.70;;
8927;SDS011;4499;48.304;11.902;2023-05-17T07:38:02;5.90;;;1.70;;
8927;SDS011;4499;48.304;11.902;2023-05-17T07:40:30;7.03;;;1.77;;
8927;SDS011;4499;48.304;11.902;2023-05-17T07:42:58;3.47;;;1.60;;
8927;SDS011;4499;48.304;11.902;2023-05-17T07:45:28;6.10;;;1.80;;
8927;SDS011;4499;48.304;11.902;2023-05-17T07:47:56;3.20;;;1.50;;
8927;SDS011;4499;48.304;11.902;2023-05-17T07:50:25;6.13;;;1.67;;
8927;SDS011;4499;48.304;11.902;2023-05-17T07:52:54;6.10;;;1.73;;
8927;SDS011;4499;48.304;11.902;2023-05-17T07:55:23;3.97;;;1.57;;
8927;SDS011;4499;48.304;11.902;2023-05-17T07:57:51;3.77;;;1.40;;
8927;SDS011;4499;48.304;11.902;2023-05-17T08:00:19;5.73;;;1.87;;
8927;SDS011;4499;48.304;11.902;2023-05-17T08:02:50;4.67;;;1.60;;
8927;SDS011;4499;48.304;11.902;2023-05-17T08:05:19;7.27;;;1.97;;
8927;SDS011;4499;48.304;11.902;2023-05-17T08:07:47;3.30;;;1.50;;
8927;SDS011;4499;48.304;11.902;2023-05-17T08:10:15;4.67;;;1.53;;
8927;SDS011;4499;48.304;11.902;2023-05-17T08:12:44;3.17;;;1.40;;
8927;SDS011;4499;48.304;11.902;2023-05-17T08:15:12;4.73;;;1.40;;
8927;SDS011;4499;48.304;11.902;2023-05-17T08:17:40;6.70;;;1.83;;
8927;SDS011;4499;48.304;11.902;2023-05-17T08:20:12;4.70;;;1.47;;
8927;SDS011;4499;48.304;11.902;2023-05-17T08:22:40;4.93;;;1.60;;
8927;SDS011;4499;48.304;11.902;2023-05-17T08:25:09;3.67;;;1.50;;
8927;SDS011;4499;48.304;11.902;2023-05-17T08:27:37;7.97;;;1.80;;
8927;SDS011;4499;48.304;11.902;2023-05-17T08:30:05;5.37;;;1.53;;
8927;SDS011;4499;48.304;11.902;2023-05-17T08:32:40;4.60;;;1.57;;
8927;SDS011;4499;48.304;11.902;2023-05-17T08:35:10;4.82;;;1.55;;
8927;SDS011;4499;48.304;11.902;2023-05-17T08:37:40;2.42;;;1.60;;
8927;SDS011;4499;48.304;11.902;2023-05-17T08:40:09;5.35;;;1.95;;
8927;SDS011;4499;48.304;11.902;2023-05-17T08:42:37;5.90;;;1.70;;
8927;SDS011;4499;48.304;11.902;2023-05-17T08:45:06;3.83;;;1.60;;
8927;SDS011;4499;48.304;11.902;2023-05-17T08:47:36;5.47;;;1.90;;
8927;SDS011;4499;48.304;11.902;2023-05-17T08:50:06;4.07;;;1.70;;
8927;SDS011;4499;48.304;11.902;2023-05-17T08:52:35;4.70;;;1.40;;
8927;SDS011;4499;48.304;11.902;2023-05-17T08:55:04;4.78;;;1.63;;
8927;SDS011;4499;48.304;11.902;2023-05-17T08:57:34;3.22;;;1.58;;
8927;SDS011;4499;48.304;11.902;2023-05-17T09:00:04;4.47;;;1.58;;
8927;SDS011;4499;48.304;11.902;2023-05-17T09:02:37;5.45;;;1.75;;
8927;SDS011;4499;48.304;11.902;2023-05-17T09:05:06;3.85;;;1.58;;
8927;SDS011;4499;48.304;11.902;2023-05-17T09:07:37;7.13;;;1.65;;
8927;SDS011;4499;48.304;11.902;2023-05-17T09:10:06;5.00;;;1.80;;
8927;SDS011;4499;48.304;11.902;2023-05-17T09:12:35;4.07;;;2.10;;
8927;SDS011;4499;48.304;11.902;2023-05-17T09:15:11;3.53;;;1.60;;
8927;SDS011;4499;48.304;11.902;2023-05-17T09:17:41;6.40;;;1.70;;
8927;SDS011;4499;48.304;11.902;2023-05-17T09:20:09;4.38;;;1.70;;
8927;SDS011;4499;48.304;11.902;2023-05-17T09:22:39;4.88;;;1.60;;
8927;SDS011;4499;48.304;11.902;2023-05-17T09:25:08;7.17;;;1.90;;
8927;SDS011;4499;48.304;11.902;2023-05-17T09:27:36;7.20;;;1.95;;
8927;SDS011;4499;48.304;11.902;2023-05-17T09:30:07;4.18;;;1.70;;
8927;SDS011;4499;48.304;11.902;2023-05-17T09:32:41;3.85;;;1.65;;
8927;SDS011;4499;48.304;11.902;2023-05-17T09:35:11;4.70;;;1.90;;
8927;SDS011;4499;48.304;11.902;2023-05-17T09:37:41;4.10;;;1.70;;
8927;SDS011;4499;48.304;11.902;2023-05-17T09:40:20;5.28;;;1.75;;
8927;SDS011;4499;48.304;11.902;2023-05-17T09:42:50;4.97;;;1.70;;
8927;SDS011;4499;48.304;11.902;2023-05-17T09:45:21;4.72;;;1.80;;
8927;SDS011;4499;48.304;11.902;2023-05-17T09:47:50;4.55;;;1.75;;
8927;SDS011;4499;48.304;11.902;2023-05-17T09:50:19;3.38;;;1.58;;
8927;SDS011;4499;48.304;11.902;2023-05-17T09:52:52;4.50;;;1.88;;
8927;SDS011;4499;48.304;11.902;2023-05-17T09:55:22;6.63;;;1.85;;
8927;SDS011;4499;48.304;11.902;2023-05-17T09:57:54;4.47;;;1.77;;
8927;SDS011;4499;48.304;11.902;2023-05-17T10:00:29;5.60;;;2.00;;
8927;SDS011;4499;48.304;11.902;2023-05-17T10:02:58;5.50;;;2.23;;
8927;SDS011;4499;48.304;11.902;2023-05-17T10:05:28;4.73;;;1.90;;
8927;SDS011;4499;48.304;11.902;2023-05-17T10:07:58;4.47;;;1.80;;
8927;SDS011;4499;48.304;11.902;2023-05-17T10:10:26;5.07;;;1.70;;
8927;SDS011;4499;48.304;11.902;2023-05-17T10:12:55;4.13;;;1.80;;
8927;SDS011;4499;48.304;11.902;2023-05-17T10:15:24;4.37;;;1.80;;
8927;SDS011;4499;48.304;11.902;2023-05-17T10:17:54;6.37;;;2.00;;
8927;SDS011;4499;48.304;11.902;2023-05-17T10:20:22;7.00;;;2.00;;
8927;SDS011;4499;48.304;11.902;2023-05-17T10:22:51;5.30;;;2.00;;
8927;SDS011;4499;48.304;11.902;2023-05-17T10:25:22;5.50;;;2.20;;
8927;SDS011;4499;48.304;11.902;2023-05-17T10:27:51;7.07;;;2.23;;
8927;SDS011;4499;48.304;11.902;2023-05-17T10:30:21;7.20;;;2.10;;
8927;SDS011;4499;48.304;11.902;2023-05-17T10:32:49;8.30;;;2.33;;
8927;SDS011;4499;48.304;11.902;2023-05-17T10:35:18;4.70;;;2.03;;
8927;SDS011;4499;48.304;11.902;2023-05-17T10:37:47;5.07;;;2.07;;
8927;SDS011;4499;48.304;11.902;2023-05-17T10:40:15;5.30;;;2.40;;
8927;SDS011;4499;48.304;11.902;2023-05-17T10:42:48;4.63;;;2.03;;
8927;SDS011;4499;48.304;11.902;2023-05-17T10:45:19;4.33;;;2.20;;
8927;SDS011;4499;48.304;11.902;2023-05-17T10:47:49;9.27;;;3.00;;
8927;SDS011;4499;48.304;11.902;2023-05-17T10:50:20;11.20;;;3.83;;
8927;SDS011;4499;48.304;11.902;2023-05-17T10:52:49;5.20;;;2.60;;
8927;SDS011;4499;48.304;11.902;2023-05-17T10:55:22;7.07;;;2.80;;
8927;SDS011;4499;48.304;11.902;2023-05-17T11:00:41;5.77;;;2.20;;
8927;SDS011;4499;48.304;11.902;2023-05-17T11:03:11;6.23;;;2.27;;
8927;SDS011;4499;48.304;11.902;2023-05-17T11:05:42;6.90;;;2.33;;
8927;SDS011;4499;48.304;11.902;2023-05-17T11:08:14;5.33;;;2.60;;
8927;SDS011;4499;48.304;11.902;2023-05-17T11:13:44;5.23;;;2.47;;
8927;SDS011;4499;48.304;11.902;2023-05-17T11:16:19;4.87;;;2.30;;
8927;SDS011;4499;48.304;11.902;2023-05-17T11:18:49;5.33;;;2.50;;
8927;SDS011;4499;48.304;11.902;2023-05-17T11:21:19;6.07;;;2.50;;
8927;SDS011;4499;48.304;11.902;2023-05-17T11:23:51;5.70;;;2.40;;
8927;SDS011;4499;48.304;11.902;2023-05-17T11:26:23;6.33;;;2.77;;
8927;SDS011;4499;48.304;11.902;2023-05-17T11:29:01;6.07;;;2.20;;
8927;SDS011;4499;48.304;11.902;2023-05-17T11:31:33;4.93;;;2.33;;
8927;SDS011;4499;48.304;11.902;2023-05-17T11:34:02;5.03;;;2.40;;
8927;SDS011;4499;48.304;11.902;2023-05-17T11:36:32;5.03;;;2.27;;
8927;SDS011;4499;48.304;11.902;2023-05-17T11:39:17;5.00;;;2.30;;
8927;SDS011;4499;48.304;11.902;2023-05-17T11:41:47;5.17;;;2.20;;
8927;SDS011;4499;48.304;11.902;2023-05-17T11:44:21;7.33;;;2.47;;
8927;SDS011;4499;48.304;11.902;2023-05-17T11:46:57;4.93;;;2.00;;
8927;SDS011;4499;48.304;11.902;2023-05-17T11:49:29;5.07;;;2.30;;
8927;SDS011;4499;48.304;11.902;2023-05-17T11:52:01;4.90;;;2.10;;
8927;SDS011;4499;48.304;11.902;2023-05-17T11:54:30;4.00;;;1.90;;
8927;SDS011;4499;48.304;11.902;2023-05-17T11:56:58;4.70;;;1.90;;
8927;SDS011;4499;48.304;11.902;2023-05-17T11:59:33;5.53;;;1.73;;
8927;SDS011;4499;48.304;11.902;2023-05-17T12:02:05;4.33;;;1.87;;
8927;SDS011;4499;48.304;11.902;2023-05-17T12:04:34;5.63;;;2.03;;
8927;SDS011;4499;48.304;11.902;2023-05-17T12:07:05;4.40;;;1.60;;
8927;SDS011;4499;48.304;11.902;2023-05-17T12:09:35;4.80;;;1.80;;
8927;SDS011;4499;48.304;11.902;2023-05-17T12:12:04;3.77;;;1.67;;
8927;SDS011;4499;48.304;11.902;2023-05-17T12:14:35;3.50;;;1.57;;
8927;SDS011;4499;48.304;11.902;2023-05-17T12:17:04;5.07;;;1.67;;
8927;SDS011;4499;48.304;11.902;2023-05-17T12:19:35;3.77;;;1.80;;
8927;SDS011;4499;48.304;11.902;2023-05-17T12:22:04;4.63;;;1.73;;
8927;SDS011;4499;48.304;11.902;2023-05-17T12:24:37;3.83;;;1.77;;
8927;SDS011;4499;48.304;11.902;2023-05-17T12:27:06;5.30;;;1.57;;
8927;SDS011;4499;48.304;11.902;2023-05-17T12:29:35;3.07;;;1.60;;
8927;SDS011;4499;48.304;11.902;2023-05-17T12:32:04;2.87;;;1.43;;
8927;SDS011;4499;48.304;11.902;2023-05-17T12:34:34;3.50;;;1.30;;
8927;SDS011;4499;48.304;11.902;2023-05-17T12:37:02;3.27;;;1.57;;
8927;SDS011;4499;48.304;11.902;2023-05-17T12:39:35;3.43;;;1.70;;
8927;SDS011;4499;48.304;11.902;2023-05-17T12:42:04;3.13;;;1.60;;
8927;SDS011;4499;48.304;11.902;2023-05-17T12:44:33;1.90;;;1.37;;
8927;SDS011;4499;48.304;11.902;2023-05-17T12:47:03;3.33;;;1.80;;
8927;SDS011;4499;48.304;11.902;2023-05-17T12:49:36;3.17;;;1.97;;
8927;SDS011;4499;48.304;11.902;2023-05-17T12:52:05;2.10;;;1.77;;
8927;SDS011;4499;48.304;11.902;2023-05-17T12:54:34;4.87;;;1.83;;
8927;SDS011;4499;48.304;11.902;2023-05-17T12:57:08;4.17;;;2.10;;
8927;SDS011;4499;48.304;11.902;2023-05-17T12:59:47;3.77;;;2.00;;
8927;SDS011;4499;48.304;11.902;2023-05-17T13:02:17;4.10;;;2.20;;
8927;SDS011;4499;48.304;11.902;2023-05-17T13:04:46;4.70;;;2.20;;
8927;SDS011;4499;48.304;11.902;2023-05-17T13:07:20;5.40;;;2.20;;
8927;SDS011;4499;48.304;11.902;2023-05-17T13:09:50;3.57;;;2.10;;
8927;SDS011;4499;48.304;11.902;2023-05-17T13:12:19;4.67;;;2.60;;
8927;SDS011;4499;48.304;11.902;2023-05-17T13:14:50;4.30;;;2.63;;
8927;SDS011;4499;48.304;11.902;2023-05-17T13:17:23;4.80;;;2.23;;
8927;SDS011;4499;48.304;11.902;2023-05-17T13:19:52;3.33;;;2.40;;
8927;SDS011;4499;48.304;11.902;2023-05-17T13:22:23;4.60;;;2.27;;
8927;SDS011;4499;48.304;11.902;2023-05-17T13:24:52;4.97;;;2.53;;
8927;SDS011;4499;48.304;11.902;2023-05-17T13:27:20;4.50;;;2.60;;
8927;SDS011;4499;48.304;11.902;2023-05-17T13:29:50;4.40;;;2.40;;
8927;SDS011;4499;48.304;11.902;2023-05-17T13:32:19;6.03;;;2.77;;
8927;SDS011;4499;48.304;11.902;2023-05-17T13:34:48;10.80;;;3.30;;
8927;SDS011;4499;48.304;11.902;2023-05-17T13:37:16;4.90;;;2.50;;
8927;SDS011;4499;48.304;11.902;2023-05-17T13:39:45;3.23;;;2.47;;
8927;SDS011;4499;48.304;11.902;2023-05-17T13:42:13;4.13;;;2.23;;
8927;SDS011;4499;48.304;11.902;2023-05-17T13:44:41;5.47;;;3.00;;
8927;SDS011;4499;48.304;11.902;2023-05-17T13:47:11;5.60;;;2.50;;
8927;SDS011;4499;48.304;11.902;2023-05-17T13:49:39;5.20;;;2.57;;
8927;SDS011;4499;48.304;11.902;2023-05-17T13:52:08;3.50;;;2.40;;
8927;SDS011;4499;48.304;11.902;2023-05-17T13:54:38;4.20;;;2.20;;
8927;SDS011;4499;48.304;11.902;2023-05-17T13:57:06;4.17;;;2.33;;
8927;SDS011;4499;48.304;11.902;2023-05-17T13:59:34;5.97;;;2.73;;
8927;SDS011;4499;48.304;11.902;2023-05-17T14:02:02;4.33;;;2.40;;
8927;SDS011;4499;48.304;11.902;2023-05-17T14:04:32;5.63;;;2.60;;
8927;SDS011;4499;48.304;11.902;2023-05-17T14:07:00;5.57;;;2.83;;
8927;SDS011;4499;48.304;11.902;2023-05-17T14:09:29;4.50;;;2.63;;
8927;SDS011;4499;48.304;11.902;2023-05-17T14:11:59;6.57;;;2.77;;
8927;SDS011;4499;48.304;11.902;2023-05-17T14:14:28;5.50;;;3.00;;
8927;SDS011;4499;48.304;11.902;2023-05-17T14:16:57;4.83;;;2.67;;
8927;SDS011;4499;48.304;11.902;2023-05-17T14:19:26;5.43;;;2.70;;
8927;SDS011;4499;48.304;11.902;2023-05-17T14:21:57;5.43;;;2.90;;
8927;SDS011;4499;48.304;11.902;2023-05-17T14:24:25;6.33;;;2.90;;
8927;SDS011;4499;48.304;11.902;2023-05-17T14:26:53;5.80;;;2.70;;
8927;SDS011;4499;48.304;11.902;2023-05-17T14:29:22;4.57;;;2.47;;
8927;SDS011;4499;48.304;11.902;2023-05-17T14:31:51;5.97;;;2.77;;
8927;SDS011;4499;48.304;11.902;2023-05-17T14:34:19;4.93;;;2.73;;
8927;SDS011;4499;48.304;11.902;2023-05-17T14:36:47;6.50;;;3.03;;
8927;SDS011;4499;48.304;11.902;2023-05-17T14:39:17;6.60;;;3.17;;
8927;SDS011;4499;48.304;11.902;2023-05-17T14:41:46;6.97;;;3.03;;
8927;SDS011;4499;48.304;11.902;2023-05-17T14:44:14;5.37;;;2.80;;
8927;SDS011;4499;48.304;11.902;2023-05-17T14:46:42;4.77;;;2.90;;
8927;SDS011;4499;48.304;11.902;2023-05-17T14:49:10;5.03;;;2.93;;
8927;SDS011;4499;48.304;11.902;2023-05-17T14:51:39;5.57;;;3.20;;
8927;SDS011;4499;48.304;11.902;2023-05-17T14:54:07;5.93;;;3.20;;
8927;SDS011;4499;48.304;11.902;2023-05-17T14:56:40;5.53;;;3.17;;
8927;SDS011;4499;48.304;11.902;2023-05-17T14:59:08;6.90;;;3.00;;
8927;SDS011;4499;48.304;11.902;2023-05-17T15:01:36;5.13;;;2.90;;
8927;SDS011;4499;48.304;11.902;2023-05-17T15:04:04;5.10;;;3.03;;
8927;SDS011;4499;48.304;11.902;2023-05-17T15:06:33;5.50;;;2.93;;
8927;SDS011;4499;48.304;11.902;2023-05-17T15:09:01;6.87;;;3.23;;
8927;SDS011;4499;48.304;11.902;2023-05-17T15:11:29;6.60;;;3.13;;
8927;SDS011;4499;48.304;11.902;2023-05-17T15:14:00;5.13;;;3.10;;
8927;SDS011;4499;48.304;11.902;2023-05-17T15:16:28;5.67;;;3.30;;
8927;SDS011;4499;48.304;11.902;2023-05-17T15:18:56;6.57;;;4.00;;